sensor_id;sensor_type;location;lat;lon;timestamp;temperature;humidity
10891;DHT22;5498;50.928;11.598;2022-09-13T00:01:53;14.50;90.40
10891;DHT22;5498;50.928;11.598;2022-09-13T00:04:55;14.40;90.30
10891;DHT22;5498;50.928;11.598;2022-09-13T00:07:57;14.40;90.40
10891;DHT22;5498;50.928;11.598;2022-09-13T00:10:59;14.40;90.50
10891;DHT22;5498;50.928;11.598;2022-09-13T00:14:02;14.30;90.50
10891;DHT22;5498;50.928;11.598;2022-09-13T00:17:04;14.30;90.60
10891;DHT22;5498;50.928;11.598;2022-09-13T00:20:07;14.30;90.60
10891;DHT22;5498;50.928;11.598;2022-09-13T00:23:10;14.30;90.70
10891;DHT22;5498;50.928;11.598;2022-09-13T00:26:13;14.30;90.70
10891;DHT22;5498;50.928;11.598;2022-09-13T00:29:18;14.20;90.60
10891;DHT22;5498;50.928;11.598;2022-09-13T00:32:19;14.20;90.40
10891;DHT22;5498;50.928;11.598;2022-09-13T00:35:21;14.20;90.40
10891;DHT22;5498;50.928;11.598;2022-09-13T00:38:26;14.20;90.50
10891;DHT22;5498;50.928;11.598;2022-09-13T00:41:28;14.20;90.50
10891;DHT22;5498;50.928;11.598;2022-09-13T00:44:52;14.10;90.50
10891;DHT22;5498;50.928;11.598;2022-09-13T00:47:59;14.10;90.80
10891;DHT22;5498;50.928;11.598;2022-09-13T00:51:02;14.10;90.80
10891;DHT22;5498;50.928;11.598;2022-09-13T00:54:07;14.00;90.80
10891;DHT22;5498;50.928;11.598;2022-09-13T00:57:10;14.00;90.70
10891;DHT22;5498;50.928;11.598;2022-09-13T01:00:15;14.00;90.90
10891;DHT22;5498;50.928;11.598;2022-09-13T01:03:20;14.00;91.00
10891;DHT22;5498;50.928;11.598;2022-09-13T01:06:26;14.00;91.00
10891;DHT22;5498;50.928;11.598;2022-09-13T01:09:31;13.90;91.00
10891;DHT22;5498;50.928;11.598;2022-09-13T01:12:41;13.90;91.00
10891;DHT22;5498;50.928;11.598;2022-09-13T01:15:47;13.90;91.00
10891;DHT22;5498;50.928;11.598;2022-09-13T01:18:50;13.90;91.00
10891;DHT22;5498;50.928;11.598;2022-09-13T01:22:14;13.90;90.80
10891;DHT22;5498;50.928;11.598;2022-09-13T01:25:49;13.90;91.00
10891;DHT22;5498;50.928;11.598;2022-09-13T01:29:33;13.80;91.00
10891;DHT22;5498;50.928;11.598;2022-09-13T01:36:56;13.80;91.10
10891;DHT22;5498;50.928;11.598;2022-09-13T01:40:28;13.80;91.10
10891;DHT22;5498;50.928;11.598;2022-09-13T01:43:45;13.80;91.10
10891;DHT22;5498;50.928;11.598;2022-09-13T01:46:59;13.80;91.30
10891;DHT22;5498;50.928;11.598;2022-09-13T01:50:12;13.80;91.30
10891;DHT22;5498;50.928;11.598;2022-09-13T01:53:23;13.80;91.30
10891;DHT22;5498;50.928;11.598;2022-09-13T01:56:32;13.80;91.30
10891;DHT22;5498;50.928;11.598;2022-09-13T01:59:42;13.70;91.30
10891;DHT22;5498;50.928;11.598;2022-09-13T02:02:51;13.70;91.30
10891;DHT22;5498;50.928;11.598;2022-09-13T02:05:59;13.70;91.30
10891;DHT22;5498;50.928;11.598;2022-09-13T02:09:08;13.70;91.40
10891;DHT22;5498;50.928;11.598;2022-09-13T02:12:15;13.70;91.40
10891;DHT22;5498;50.928;11.598;2022-09-13T02:15:22;13.70;91.40
10891;DHT22;5498;50.928;11.598;2022-09-13T02:18:29;13.70;91.30
10891;DHT22;5498;50.928;11.598;2022-09-13T02:21:37;13.70;91.30
10891;DHT22;5498;50.928;11.598;2022-09-13T02:24:43;13.70;91.40
10891;DHT22;5498;50.928;11.598;2022-09-13T02:27:49;13.70;91.40
10891;DHT22;5498;50.928;11.598;2022-09-13T02:30:55;13.70;91.30
10891;DHT22;5498;50.928;11.598;2022-09-13T02:34:00;13.70;91.40
10891;DHT22;5498;50.928;11.598;2022-09-13T02:37:06;13.60;91.40
10891;DHT22;5498;50.928;11.598;2022-09-13T02:40:13;13.60;91.40
10891;DHT22;5498;50.928;11.598;2022-09-13T02:43:20;13.60;91.40
10891;DHT22;5498;50.928;11.598;2022-09-13T02:46:38;13.50;91.50
10891;DHT22;5498;50.928;11.598;2022-09-13T02:49:53;13.50;91.50
10891;DHT22;5498;50.928;11.598;2022-09-13T02:53:03;13.50;91.50
10891;DHT22;5498;50.928;11.598;2022-09-13T02:56:17;13.50;91.50
10891;DHT22;5498;50.928;11.598;2022-09-13T02:59:22;13.40;91.50
10891;DHT22;5498;50.928;11.598;2022-09-13T03:02:28;13.40;91.50
10891;DHT22;5498;50.928;11.598;2022-09-13T03:05:32;13.40;91.50
10891;DHT22;5498;50.928;11.598;2022-09-13T03:08:36;13.40;91.30
10891;DHT22;5498;50.928;11.598;2022-09-13T03:11:52;13.50;91.40
10891;DHT22;5498;50.928;11.598;2022-09-13T03:15:09;13.40;91.50
10891;DHT22;5498;50.928;11.598;2022-09-13T03:18:28;13.40;91.50
10891;DHT22;5498;50.928;11.598;2022-09-13T03:21:50;13.30;91.50
10891;DHT22;5498;50.928;11.598;2022-09-13T03:25:05;13.30;91.60
10891;DHT22;5498;50.928;11.598;2022-09-13T03:28:18;13.30;91.60
10891;DHT22;5498;50.928;11.598;2022-09-13T03:31:31;13.40;91.70
10891;DHT22;5498;50.928;11.598;2022-09-13T03:34:42;13.30;91.70
10891;DHT22;5498;50.928;11.598;2022-09-13T03:37:54;13.30;91.60
10891;DHT22;5498;50.928;11.598;2022-09-13T03:41:03;13.30;91.60
10891;DHT22;5498;50.928;11.598;2022-09-13T03:44:09;13.30;91.60
10891;DHT22;5498;50.928;11.598;2022-09-13T03:47:15;13.30;91.60
10891;DHT22;5498;50.928;11.598;2022-09-13T03:50:20;13.30;91.70
10891;DHT22;5498;50.928;11.598;2022-09-13T03:53:26;13.20;91.70
10891;DHT22;5498;50.928;11.598;2022-09-13T03:56:30;13.20;91.80
10891;DHT22;5498;50.928;11.598;2022-09-13T03:59:33;13.20;91.70
10891;DHT22;5498;50.928;11.598;2022-09-13T04:02:35;13.10;91.50
10891;DHT22;5498;50.928;11.598;2022-09-13T04:05:38;13.10;91.50
10891;DHT22;5498;50.928;11.598;2022-09-13T04:08:40;13.20;91.60
10891;DHT22;5498;50.928;11.598;2022-09-13T04:11:44;13.10;91.50
10891;DHT22;5498;50.928;11.598;2022-09-13T04:14:46;13.10;91.50
10891;DHT22;5498;50.928;11.598;2022-09-13T04:17:48;13.10;91.60
10891;DHT22;5498;50.928;11.598;2022-09-13T04:20:54;13.00;91.60
10891;DHT22;5498;50.928;11.598;2022-09-13T04:23:56;13.00;92.20
10891;DHT22;5498;50.928;11.598;2022-09-13T04:27:00;13.10;91.80
10891;DHT22;5498;50.928;11.598;2022-09-13T04:30:03;13.00;91.90
10891;DHT22;5498;50.928;11.598;2022-09-13T04:33:05;13.00;91.90
10891;DHT22;5498;50.928;11.598;2022-09-13T04:36:07;13.10;91.80
10891;DHT22;5498;50.928;11.598;2022-09-13T04:39:10;13.00;91.80
10891;DHT22;5498;50.928;11.598;2022-09-13T04:42:14;13.00;91.70
10891;DHT22;5498;50.928;11.598;2022-09-13T04:45:17;13.00;91.80
10891;DHT22;5498;50.928;11.598;2022-09-13T04:48:18;13.00;92.00
10891;DHT22;5498;50.928;11.598;2022-09-13T04:51:21;13.10;92.10
10891;DHT22;5498;50.928;11.598;2022-09-13T04:54:23;13.10;92.10
10891;DHT22;5498;50.928;11.598;2022-09-13T04:57:26;13.20;91.90
10891;DHT22;5498;50.928;11.598;2022-09-13T05:00:28;13.20;91.50
10891;DHT22;5498;50.928;11.598;2022-09-13T05:03:31;13.20;91.90
10891;DHT22;5498;50.928;11.598;2022-09-13T05:06:34;13.30;92.20
10891;DHT22;5498;50.928;11.598;2022-09-13T05:09:36;13.30;92.10
10891;DHT22;5498;50.928;11.598;2022-09-13T05:12:39;13.30;92.10
10891;DHT22;5498;50.928;11.598;2022-09-13T05:15:41;13.30;92.00
10891;DHT22;5498;50.928;11.598;2022-09-13T05:18:43;13.40;92.00
10891;DHT22;5498;50.928;11.598;2022-09-13T05:21:44;13.40;91.90
10891;DHT22;5498;50.928;11.598;2022-09-13T05:24:46;13.50;91.80
10891;DHT22;5498;50.928;11.598;2022-09-13T05:27:49;13.50;91.80
10891;DHT22;5498;50.928;11.598;2022-09-13T05:30:55;13.50;91.80
10891;DHT22;5498;50.928;11.598;2022-09-13T05:34:00;13.60;92.00
10891;DHT22;5498;50.928;11.598;2022-09-13T05:37:05;13.60;91.90
10891;DHT22;5498;50.928;11.598;2022-09-13T05:40:07;13.70;91.60
10891;DHT22;5498;50.928;11.598;2022-09-13T05:43:11;13.70;91.80
10891;DHT22;5498;50.928;11.598;2022-09-13T05:46:15;13.70;91.60
10891;DHT22;5498;50.928;11.598;2022-09-13T05:49:19;13.70;91.80
10891;DHT22;5498;50.928;11.598;2022-09-13T05:52:20;13.70;91.60
10891;DHT22;5498;50.928;11.598;2022-09-13T05:55:22;13.70;91.50
10891;DHT22;5498;50.928;11.598;2022-09-13T05:58:26;13.70;91.70
10891;DHT22;5498;50.928;11.598;2022-09-13T06:01:28;13.80;91.70
10891;DHT22;5498;50.928;11.598;2022-09-13T06:04:30;14.00;91.70
10891;DHT22;5498;50.928;11.598;2022-09-13T06:07:31;13.80;91.70
10891;DHT22;5498;50.928;11.598;2022-09-13T06:10:34;13.80;91.70
10891;DHT22;5498;50.928;11.598;2022-09-13T06:13:38;13.90;91.60
10891;DHT22;5498;50.928;11.598;2022-09-13T06:16:40;13.90;91.90
10891;DHT22;5498;50.928;11.598;2022-09-13T06:19:42;14.00;91.80
10891;DHT22;5498;50.928;11.598;2022-09-13T06:22:46;14.10;91.70
10891;DHT22;5498;50.928;11.598;2022-09-13T06:25:48;14.10;91.60
10891;DHT22;5498;50.928;11.598;2022-09-13T06:28:53;14.20;91.50
10891;DHT22;5498;50.928;11.598;2022-09-13T06:31:56;14.20;91.70
10891;DHT22;5498;50.928;11.598;2022-09-13T06:34:58;14.30;91.50
10891;DHT22;5498;50.928;11.598;2022-09-13T06:37:59;14.30;91.50
10891;DHT22;5498;50.928;11.598;2022-09-13T06:41:03;14.40;91.50
10891;DHT22;5498;50.928;11.598;2022-09-13T06:44:08;14.50;91.60
10891;DHT22;5498;50.928;11.598;2022-09-13T06:47:10;14.60;91.40
10891;DHT22;5498;50.928;11.598;2022-09-13T06:50:12;14.70;91.40
10891;DHT22;5498;50.928;11.598;2022-09-13T06:53:14;14.70;91.30
10891;DHT22;5498;50.928;11.598;2022-09-13T06:56:19;14.80;91.20
10891;DHT22;5498;50.928;11.598;2022-09-13T06:59:23;14.80;91.40
10891;DHT22;5498;50.928;11.598;2022-09-13T07:02:25;14.90;91.20
10891;DHT22;5498;50.928;11.598;2022-09-13T07:05:27;14.90;91.20
10891;DHT22;5498;50.928;11.598;2022-09-13T07:08:29;14.90;91.20
10891;DHT22;5498;50.928;11.598;2022-09-13T07:11:33;15.00;91.40
10891;DHT22;5498;50.928;11.598;2022-09-13T07:14:37;15.00;91.40
10891;DHT22;5498;50.928;11.598;2022-09-13T07:17:40;15.00;91.30
10891;DHT22;5498;50.928;11.598;2022-09-13T07:20:42;15.00;91.40
10891;DHT22;5498;50.928;11.598;2022-09-13T07:23:43;15.00;91.40
10891;DHT22;5498;50.928;11.598;2022-09-13T07:26:46;15.10;91.30
10891;DHT22;5498;50.928;11.598;2022-09-13T07:29:49;15.00;91.50
10891;DHT22;5498;50.928;11.598;2022-09-13T07:32:52;15.00;91.60
10891;DHT22;5498;50.928;11.598;2022-09-13T07:35:54;15.20;91.90
10891;DHT22;5498;50.928;11.598;2022-09-13T07:38:57;14.80;92.20
10891;DHT22;5498;50.928;11.598;2022-09-13T07:41:59;14.80;92.30
10891;DHT22;5498;50.928;11.598;2022-09-13T07:45:03;14.80;92.10
10891;DHT22;5498;50.928;11.598;2022-09-13T07:48:05;14.90;92.30
10891;DHT22;5498;50.928;11.598;2022-09-13T07:51:09;15.00;92.20
10891;DHT22;5498;50.928;11.598;2022-09-13T07:54:14;15.10;92.50
10891;DHT22;5498;50.928;11.598;2022-09-13T07:57:17;15.10;92.50
10891;DHT22;5498;50.928;11.598;2022-09-13T08:00:20;15.20;92.50
10891;DHT22;5498;50.928;11.598;2022-09-13T08:03:23;15.70;92.70
10891;DHT22;5498;50.928;11.598;2022-09-13T08:06:28;15.20;92.60
10891;DHT22;5498;50.928;11.598;2022-09-13T08:09:31;15.20;92.80
10891;DHT22;5498;50.928;11.598;2022-09-13T08:12:33;15.30;92.70
10891;DHT22;5498;50.928;11.598;2022-09-13T08:15:36;15.30;92.70
10891;DHT22;5498;50.928;11.598;2022-09-13T08:18:42;15.30;92.80
10891;DHT22;5498;50.928;11.598;2022-09-13T08:21:45;15.40;92.90
10891;DHT22;5498;50.928;11.598;2022-09-13T08:24:47;15.40;92.70
10891;DHT22;5498;50.928;11.598;2022-09-13T08:27:50;15.50;92.70
10891;DHT22;5498;50.928;11.598;2022-09-13T08:30:55;15.70;92.70
10891;DHT22;5498;50.928;11.598;2022-09-13T08:33:57;15.80;92.50
10891;DHT22;5498;50.928;11.598;2022-09-13T08:36:59;16.00;92.60
10891;DHT22;5498;50.928;11.598;2022-09-13T08:40:01;16.10;92.40
10891;DHT22;5498;50.928;11.598;2022-09-13T08:43:08;16.20;92.70
10891;DHT22;5498;50.928;11.598;2022-09-13T08:46:22;16.30;92.40
10891;DHT22;5498;50.928;11.598;2022-09-13T08:49:30;16.50;92.30
10891;DHT22;5498;50.928;11.598;2022-09-13T08:52:40;16.60;92.20
10891;DHT22;5498;50.928;11.598;2022-09-13T08:55:53;16.80;92.10
10891;DHT22;5498;50.928;11.598;2022-09-13T08:59:17;17.10;92.00
10891;DHT22;5498;50.928;11.598;2022-09-13T09:02:43;17.40;91.70
10891;DHT22;5498;50.928;11.598;2022-09-13T09:05:50;17.60;91.30
10891;DHT22;5498;50.928;11.598;2022-09-13T09:08:56;17.80;91.10
10891;DHT22;5498;50.928;11.598;2022-09-13T09:12:07;17.90;90.90
10891;DHT22;5498;50.928;11.598;2022-09-13T09:15:16;18.10;90.70
10891;DHT22;5498;50.928;11.598;2022-09-13T09:18:24;18.20;90.60
10891;DHT22;5498;50.928;11.598;2022-09-13T09:21:30;18.40;90.50
10891;DHT22;5498;50.928;11.598;2022-09-13T09:24:36;18.50;90.30
10891;DHT22;5498;50.928;11.598;2022-09-13T09:27:39;18.60;90.20
10891;DHT22;5498;50.928;11.598;2022-09-13T09:30:48;18.80;90.00
10891;DHT22;5498;50.928;11.598;2022-09-13T09:34:02;19.00;90.00
10891;DHT22;5498;50.928;11.598;2022-09-13T09:37:14;19.20;89.80
10891;DHT22;5498;50.928;11.598;2022-09-13T09:40:20;19.40;89.10
10891;DHT22;5498;50.928;11.598;2022-09-13T09:43:26;19.60;88.00
10891;DHT22;5498;50.928;11.598;2022-09-13T09:46:36;19.80;87.70
10891;DHT22;5498;50.928;11.598;2022-09-13T09:49:44;19.90;87.30
10891;DHT22;5498;50.928;11.598;2022-09-13T09:53:07;20.00;87.60
10891;DHT22;5498;50.928;11.598;2022-09-13T09:56:22;20.00;86.20
10891;DHT22;5498;50.928;11.598;2022-09-13T09:59:27;20.10;86.20
10891;DHT22;5498;50.928;11.598;2022-09-13T10:02:42;20.20;86.10
10891;DHT22;5498;50.928;11.598;2022-09-13T10:05:46;20.20;85.80
10891;DHT22;5498;50.928;11.598;2022-09-13T10:08:56;20.30;85.70
10891;DHT22;5498;50.928;11.598;2022-09-13T10:12:00;20.30;85.70
10891;DHT22;5498;50.928;11.598;2022-09-13T10:15:14;20.40;85.30
10891;DHT22;5498;50.928;11.598;2022-09-13T10:18:19;20.40;85.40
10891;DHT22;5498;50.928;11.598;2022-09-13T10:21:24;20.50;85.60
10891;DHT22;5498;50.928;11.598;2022-09-13T10:24:28;20.60;85.80
10891;DHT22;5498;50.928;11.598;2022-09-13T10:27:33;20.60;85.50
10891;DHT22;5498;50.928;11.598;2022-09-13T10:30:39;20.70;85.60
10891;DHT22;5498;50.928;11.598;2022-09-13T10:33:46;20.80;85.30
10891;DHT22;5498;50.928;11.598;2022-09-13T10:36:59;20.90;84.80
10891;DHT22;5498;50.928;11.598;2022-09-13T10:40:07;20.90;83.70
10891;DHT22;5498;50.928;11.598;2022-09-13T10:43:17;21.00;82.50
10891;DHT22;5498;50.928;11.598;2022-09-13T10:46:22;21.00;81.20
10891;DHT22;5498;50.928;11.598;2022-09-13T10:49:39;21.00;79.80
10891;DHT22;5498;50.928;11.598;2022-09-13T10:52:47;21.10;76.90
10891;DHT22;5498;50.928;11.598;2022-09-13T10:55:52;21.10;76.40
10891;DHT22;5498;50.928;11.598;2022-09-13T10:59:14;21.20;75.80
10891;DHT22;5498;50.928;11.598;2022-09-13T11:02:36;21.30;76.10
10891;DHT22;5498;50.928;11.598;2022-09-13T11:05:54;21.30;76.00
10891;DHT22;5498;50.928;11.598;2022-09-13T11:09:07;21.30;75.20
10891;DHT22;5498;50.928;11.598;2022-09-13T11:12:17;21.40;73.50
10891;DHT22;5498;50.928;11.598;2022-09-13T11:15:30;21.40;73.90
10891;DHT22;5498;50.928;11.598;2022-09-13T11:19:05;21.50;74.20
10891;DHT22;5498;50.928;11.598;2022-09-13T11:22:25;21.60;73.40
10891;DHT22;5498;50.928;11.598;2022-09-13T11:25:48;21.70;73.70
10891;DHT22;5498;50.928;11.598;2022-09-13T11:29:03;21.70;73.50
10891;DHT22;5498;50.928;11.598;2022-09-13T11:32:23;21.80;73.80
10891;DHT22;5498;50.928;11.598;2022-09-13T11:35:46;21.90;71.80
10891;DHT22;5498;50.928;11.598;2022-09-13T11:39:01;22.00;71.00
10891;DHT22;5498;50.928;11.598;2022-09-13T11:42:24;22.30;71.60
10891;DHT22;5498;50.928;11.598;2022-09-13T11:45:36;22.40;72.00
10891;DHT22;5498;50.928;11.598;2022-09-13T11:49:10;22.70;72.00
10891;DHT22;5498;50.928;11.598;2022-09-13T11:52:30;22.30;71.10
10891;DHT22;5498;50.928;11.598;2022-09-13T11:55:43;22.40;70.40
10891;DHT22;5498;50.928;11.598;2022-09-13T11:58:51;22.40;69.60
10891;DHT22;5498;50.928;11.598;2022-09-13T12:01:57;22.50;70.10
10891;DHT22;5498;50.928;11.598;2022-09-13T12:05:05;22.50;69.10
10891;DHT22;5498;50.928;11.598;2022-09-13T12:08:15;22.50;68.60
10891;DHT22;5498;50.928;11.598;2022-09-13T12:11:22;22.60;68.50
10891;DHT22;5498;50.928;11.598;2022-09-13T12:14:31;22.70;67.60
10891;DHT22;5498;50.928;11.598;2022-09-13T12:17:44;22.80;67.40
10891;DHT22;5498;50.928;11.598;2022-09-13T12:20:50;22.90;65.90
10891;DHT22;5498;50.928;11.598;2022-09-13T12:24:00;23.00;66.10
10891;DHT22;5498;50.928;11.598;2022-09-13T12:27:08;23.00;66.80
10891;DHT22;5498;50.928;11.598;2022-09-13T12:30:17;23.00;66.80
10891;DHT22;5498;50.928;11.598;2022-09-13T12:33:20;23.10;67.10
10891;DHT22;5498;50.928;11.598;2022-09-13T12:36:46;23.20;66.60
10891;DHT22;5498;50.928;11.598;2022-09-13T12:40:10;23.20;66.80
10891;DHT22;5498;50.928;11.598;2022-09-13T12:47:35;23.40;66.40
10891;DHT22;5498;50.928;11.598;2022-09-13T12:54:33;23.60;66.80
10891;DHT22;5498;50.928;11.598;2022-09-13T12:57:52;23.70;66.30
10891;DHT22;5498;50.928;11.598;2022-09-13T13:01:06;23.50;64.90
10891;DHT22;5498;50.928;11.598;2022-09-13T13:04:14;23.40;66.00
10891;DHT22;5498;50.928;11.598;2022-09-13T13:07:20;23.50;65.60
10891;DHT22;5498;50.928;11.598;2022-09-13T13:10:26;23.60;66.30
10891;DHT22;5498;50.928;11.598;2022-09-13T13:13:34;23.70;66.90
10891;DHT22;5498;50.928;11.598;2022-09-13T13:16:38;23.70;66.40
10891;DHT22;5498;50.928;11.598;2022-09-13T13:19:42;23.70;65.90
10891;DHT22;5498;50.928;11.598;2022-09-13T13:22:49;23.80;65.60
10891;DHT22;5498;50.928;11.598;2022-09-13T13:26:00;23.80;64.80
10891;DHT22;5498;50.928;11.598;2022-09-13T13:29:15;23.80;64.00
10891;DHT22;5498;50.928;11.598;2022-09-13T13:32:19;23.90;64.20
10891;DHT22;5498;50.928;11.598;2022-09-13T13:35:28;23.90;63.60
10891;DHT22;5498;50.928;11.598;2022-09-13T13:38:46;24.30;63.00
10891;DHT22;5498;50.928;11.598;2022-09-13T13:41:52;23.90;63.20
10891;DHT22;5498;50.928;11.598;2022-09-13T13:45:18;24.00;63.20
10891;DHT22;5498;50.928;11.598;2022-09-13T13:48:37;24.00;62.80
10891;DHT22;5498;50.928;11.598;2022-09-13T13:51:40;24.30;62.90
10891;DHT22;5498;50.928;11.598;2022-09-13T13:55:00;24.10;61.70
10891;DHT22;5498;50.928;11.598;2022-09-13T13:58:11;24.10;60.80
10891;DHT22;5498;50.928;11.598;2022-09-13T14:01:26;24.20;61.30
10891;DHT22;5498;50.928;11.598;2022-09-13T14:04:52;24.20;61.20
10891;DHT22;5498;50.928;11.598;2022-09-13T14:08:26;24.30;60.80
10891;DHT22;5498;50.928;11.598;2022-09-13T14:11:45;24.40;60.60
10891;DHT22;5498;50.928;11.598;2022-09-13T14:15:03;24.40;60.40
10891;DHT22;5498;50.928;11.598;2022-09-13T14:22:05;24.50;60.00
10891;DHT22;5498;50.928;11.598;2022-09-13T14:25:21;24.50;59.90
10891;DHT22;5498;50.928;11.598;2022-09-13T14:28:25;24.60;59.80
10891;DHT22;5498;50.928;11.598;2022-09-13T14:31:29;24.60;59.10
10891;DHT22;5498;50.928;11.598;2022-09-13T14:34:33;24.70;58.40
10891;DHT22;5498;50.928;11.598;2022-09-13T14:37:37;24.70;58.60
10891;DHT22;5498;50.928;11.598;2022-09-13T14:40:41;24.70;58.60
10891;DHT22;5498;50.928;11.598;2022-09-13T14:43:48;24.70;59.10
10891;DHT22;5498;50.928;11.598;2022-09-13T14:46:54;24.70;59.00
10891;DHT22;5498;50.928;11.598;2022-09-13T14:50:05;25.00;59.00
10891;DHT22;5498;50.928;11.598;2022-09-13T14:53:14;24.70;58.90
10891;DHT22;5498;50.928;11.598;2022-09-13T14:56:29;24.60;58.60
10891;DHT22;5498;50.928;11.598;2022-09-13T14:59:35;24.80;58.70
10891;DHT22;5498;50.928;11.598;2022-09-13T15:02:47;24.50;58.80
10891;DHT22;5498;50.928;11.598;2022-09-13T15:05:52;24.60;58.60
10891;DHT22;5498;50.928;11.598;2022-09-13T15:08:59;24.60;59.30
10891;DHT22;5498;50.928;11.598;2022-09-13T15:12:23;24.60;58.40
10891;DHT22;5498;50.928;11.598;2022-09-13T15:15:33;25.00;58.10
10891;DHT22;5498;50.928;11.598;2022-09-13T15:18:35;24.50;57.20
10891;DHT22;5498;50.928;11.598;2022-09-13T15:21:37;24.50;57.20
10891;DHT22;5498;50.928;11.598;2022-09-13T15:24:43;24.60;57.10
10891;DHT22;5498;50.928;11.598;2022-09-13T15:27:48;24.60;57.10
10891;DHT22;5498;50.928;11.598;2022-09-13T15:30:51;24.60;57.30
10891;DHT22;5498;50.928;11.598;2022-09-13T15:34:11;24.50;57.00
10891;DHT22;5498;50.928;11.598;2022-09-13T15:37:32;24.50;57.00
10891;DHT22;5498;50.928;11.598;2022-09-13T15:40:41;24.50;57.00
10891;DHT22;5498;50.928;11.598;2022-09-13T15:43:48;24.90;57.10
10891;DHT22;5498;50.928;11.598;2022-09-13T15:46:51;24.60;57.00
10891;DHT22;5498;50.928;11.598;2022-09-13T15:49:54;24.60;57.30
10891;DHT22;5498;50.928;11.598;2022-09-13T15:52:57;24.60;57.40
10891;DHT22;5498;50.928;11.598;2022-09-13T15:56:00;24.60;57.60
10891;DHT22;5498;50.928;11.598;2022-09-13T15:59:03;24.60;58.00
10891;DHT22;5498;50.928;11.598;2022-09-13T16:02:16;24.50;58.00
10891;DHT22;5498;50.928;11.598;2022-09-13T16:05:21;24.50;58.70
10891;DHT22;5498;50.928;11.598;2022-09-13T16:08:23;24.40;58.80
10891;DHT22;5498;50.928;11.598;2022-09-13T16:11:25;24.40;59.10
10891;DHT22;5498;50.928;11.598;2022-09-13T16:14:29;24.40;59.30
10891;DHT22;5498;50.928;11.598;2022-09-13T16:17:31;24.30;59.30
10891;DHT22;5498;50.928;11.598;2022-09-13T16:20:33;24.70;59.60
10891;DHT22;5498;50.928;11.598;2022-09-13T16:23:35;24.50;59.80
10891;DHT22;5498;50.928;11.598;2022-09-13T16:26:38;24.20;59.70
10891;DHT22;5498;50.928;11.598;2022-09-13T16:29:42;24.10;59.80
10891;DHT22;5498;50.928;11.598;2022-09-13T16:32:45;24.10;60.10
10891;DHT22;5498;50.928;11.598;2022-09-13T16:35:47;24.10;60.10
10891;DHT22;5498;50.928;11.598;2022-09-13T16:38:49;24.50;60.70
10891;DHT22;5498;50.928;11.598;2022-09-13T16:41:50;24.00;60.30
10891;DHT22;5498;50.928;11.598;2022-09-13T16:44:54;24.00;60.30
10891;DHT22;5498;50.928;11.598;2022-09-13T16:47:56;24.00;60.50
10891;DHT22;5498;50.928;11.598;2022-09-13T16:51:01;23.90;60.80
10891;DHT22;5498;50.928;11.598;2022-09-13T16:54:04;23.90;61.20
10891;DHT22;5498;50.928;11.598;2022-09-13T16:57:06;23.90;61.00
10891;DHT22;5498;50.928;11.598;2022-09-13T17:00:12;23.80;61.30
10891;DHT22;5498;50.928;11.598;2022-09-13T17:03:16;23.80;61.70
10891;DHT22;5498;50.928;11.598;2022-09-13T17:06:21;23.80;61.70
10891;DHT22;5498;50.928;11.598;2022-09-13T17:09:23;23.70;62.20
10891;DHT22;5498;50.928;11.598;2022-09-13T17:12:27;23.70;62.50
10891;DHT22;5498;50.928;11.598;2022-09-13T17:15:30;23.60;62.20
10891;DHT22;5498;50.928;11.598;2022-09-13T17:18:32;23.60;63.20
10891;DHT22;5498;50.928;11.598;2022-09-13T17:21:34;23.50;64.30
10891;DHT22;5498;50.928;11.598;2022-09-13T17:24:37;23.40;64.80
10891;DHT22;5498;50.928;11.598;2022-09-13T17:27:40;23.40;65.60
10891;DHT22;5498;50.928;11.598;2022-09-13T17:30:45;23.30;66.00
10891;DHT22;5498;50.928;11.598;2022-09-13T17:33:47;23.20;66.60
10891;DHT22;5498;50.928;11.598;2022-09-13T17:36:49;23.40;67.10
10891;DHT22;5498;50.928;11.598;2022-09-13T17:39:51;23.00;67.50
10891;DHT22;5498;50.928;11.598;2022-09-13T17:42:53;23.00;67.70
10891;DHT22;5498;50.928;11.598;2022-09-13T17:46:02;23.30;68.10
10891;DHT22;5498;50.928;11.598;2022-09-13T17:49:07;22.90;68.70
10891;DHT22;5498;50.928;11.598;2022-09-13T17:52:09;22.70;68.20
10891;DHT22;5498;50.928;11.598;2022-09-13T17:55:14;23.00;68.20
10891;DHT22;5498;50.928;11.598;2022-09-13T17:58:16;22.70;68.70
10891;DHT22;5498;50.928;11.598;2022-09-13T18:01:19;22.90;70.30
10891;DHT22;5498;50.928;11.598;2022-09-13T18:04:22;22.60;69.60
10891;DHT22;5498;50.928;11.598;2022-09-13T18:07:24;22.50;69.80
10891;DHT22;5498;50.928;11.598;2022-09-13T18:10:26;22.80;70.10
10891;DHT22;5498;50.928;11.598;2022-09-13T18:13:28;22.40;70.30
10891;DHT22;5498;50.928;11.598;2022-09-13T18:16:32;22.30;71.20
10891;DHT22;5498;50.928;11.598;2022-09-13T18:19:34;22.30;72.00
10891;DHT22;5498;50.928;11.598;2022-09-13T18:22:36;22.30;72.30
10891;DHT22;5498;50.928;11.598;2022-09-13T18:25:38;22.20;72.30
10891;DHT22;5498;50.928;11.598;2022-09-13T18:28:41;22.10;72.40
10891;DHT22;5498;50.928;11.598;2022-09-13T18:31:45;22.10;73.10
10891;DHT22;5498;50.928;11.598;2022-09-13T18:34:48;22.00;72.90
10891;DHT22;5498;50.928;11.598;2022-09-13T18:37:49;22.00;73.10
10891;DHT22;5498;50.928;11.598;2022-09-13T18:40:59;22.30;73.30
10891;DHT22;5498;50.928;11.598;2022-09-13T18:44:02;21.90;73.70
10891;DHT22;5498;50.928;11.598;2022-09-13T18:47:06;21.80;73.80
10891;DHT22;5498;50.928;11.598;2022-09-13T18:50:12;21.70;74.10
10891;DHT22;5498;50.928;11.598;2022-09-13T18:53:14;21.60;74.00
10891;DHT22;5498;50.928;11.598;2022-09-13T18:56:18;21.50;74.00
10891;DHT22;5498;50.928;11.598;2022-09-13T18:59:23;21.50;74.50
10891;DHT22;5498;50.928;11.598;2022-09-13T19:02:26;21.40;74.80
10891;DHT22;5498;50.928;11.598;2022-09-13T19:05:36;21.30;75.50
10891;DHT22;5498;50.928;11.598;2022-09-13T19:08:39;21.30;76.10
10891;DHT22;5498;50.928;11.598;2022-09-13T19:11:42;21.20;75.90
10891;DHT22;5498;50.928;11.598;2022-09-13T19:14:45;21.10;76.40
10891;DHT22;5498;50.928;11.598;2022-09-13T19:17:49;21.10;76.70
10891;DHT22;5498;50.928;11.598;2022-09-13T19:20:51;21.00;76.50
10891;DHT22;5498;50.928;11.598;2022-09-13T19:23:53;20.90;77.10
10891;DHT22;5498;50.928;11.598;2022-09-13T19:26:56;20.90;77.30
10891;DHT22;5498;50.928;11.598;2022-09-13T19:29:58;20.80;77.30
10891;DHT22;5498;50.928;11.598;2022-09-13T19:33:01;20.80;77.60
10891;DHT22;5498;50.928;11.598;2022-09-13T19:36:04;20.80;77.90
10891;DHT22;5498;50.928;11.598;2022-09-13T19:39:08;20.80;78.30
10891;DHT22;5498;50.928;11.598;2022-09-13T19:42:10;20.70;78.60
10891;DHT22;5498;50.928;11.598;2022-09-13T19:45:12;20.60;78.60
10891;DHT22;5498;50.928;11.598;2022-09-13T19:48:15;20.60;78.50
10891;DHT22;5498;50.928;11.598;2022-09-13T19:51:19;20.40;79.10
10891;DHT22;5498;50.928;11.598;2022-09-13T19:54:23;20.70;79.80
10891;DHT22;5498;50.928;11.598;2022-09-13T19:57:24;20.30;79.10